createdAt,value
2023-02-18T00:00:35.875Z,2.20
2023-02-18T00:03:05.632Z,2.70
2023-02-18T00:05:35.379Z,2.80
2023-02-18T00:08:05.136Z,3.10
2023-02-18T00:10:34.871Z,2.90
2023-02-18T00:13:04.617Z,2.67
2023-02-18T00:15:37.911Z,2.83
2023-02-18T00:18:08.569Z,2.87
2023-02-18T00:20:38.743Z,3.20
2023-02-18T00:23:08.539Z,2.87
2023-02-18T00:25:38.319Z,2.97
2023-02-18T00:28:08.202Z,2.87
2023-02-18T00:30:43.671Z,2.57
2023-02-18T00:33:13.457Z,2.80
2023-02-18T00:35:43.192Z,3.17
2023-02-18T00:38:12.961Z,2.60
2023-02-18T00:40:43.660Z,3.17
2023-02-18T00:43:13.778Z,3.03
2023-02-18T00:45:46.115Z,3.27
2023-02-18T00:48:15.872Z,2.67
2023-02-18T00:50:45.636Z,3.23
2023-02-18T00:53:15.479Z,2.90
2023-02-18T00:55:47.955Z,2.87
2023-02-18T00:58:18.760Z,2.67
2023-02-18T01:00:51.460Z,2.80
2023-02-18T01:03:22.628Z,3.00
2023-02-18T01:05:53.041Z,2.40
2023-02-18T01:08:24.124Z,3.03
2023-02-18T01:10:57.976Z,2.30
2023-02-18T01:13:28.611Z,2.30
2023-02-18T01:16:01.131Z,2.80
2023-02-18T01:18:31.227Z,2.53
2023-02-18T01:21:01.409Z,2.60
2023-02-18T01:23:31.574Z,3.13
2023-02-18T01:26:01.571Z,3.63
2023-02-18T01:28:31.325Z,2.70
2023-02-18T01:31:08.454Z,3.20
2023-02-18T01:33:38.650Z,2.43
2023-02-18T01:36:10.680Z,2.80
2023-02-18T01:38:41.092Z,2.77
2023-02-18T01:41:11.461Z,2.50
2023-02-18T01:43:41.607Z,2.77
2023-02-18T01:46:20.714Z,2.80
2023-02-18T01:48:54.736Z,2.97
2023-02-18T01:51:29.147Z,2.93
2023-02-18T01:54:03.586Z,3.40
2023-02-18T01:56:38.363Z,2.90
2023-02-18T01:59:11.888Z,3.13
2023-02-18T02:01:46.547Z,2.70
2023-02-18T02:04:16.818Z,2.67
2023-02-18T02:06:46.700Z,2.93
2023-02-18T02:09:19.004Z,3.17
2023-02-18T02:12:16.911Z,2.37
2023-02-18T02:15:12.474Z,2.57
2023-02-18T02:17:57.193Z,2.40
2023-02-18T02:21:02.025Z,2.80
2023-02-18T02:24:05.407Z,2.37
2023-02-18T02:27:07.136Z,3.10
2023-02-18T02:30:31.140Z,2.70
2023-02-18T02:33:32.785Z,2.90
2023-02-18T02:36:12.604Z,2.43
2023-02-18T02:38:50.408Z,2.70
2023-02-18T02:41:30.992Z,2.60
2023-02-18T02:44:10.402Z,2.93
2023-02-18T02:46:44.130Z,2.77
2023-02-18T02:49:26.127Z,2.60
2023-02-18T02:52:04.606Z,2.93
2023-02-18T02:54:34.510Z,2.50
2023-02-18T02:57:10.835Z,2.23
2023-02-18T02:59:44.370Z,2.43
2023-02-18T03:02:31.681Z,2.70
2023-02-18T03:05:18.193Z,2.73
2023-02-18T03:08:07.611Z,2.80
2023-02-18T03:10:48.712Z,2.67
2023-02-18T03:13:28.996Z,3.30
2023-02-18T03:16:02.278Z,3.00
2023-02-18T03:18:40.184Z,2.60
2023-02-18T03:21:13.310Z,2.73
2023-02-18T03:23:52.539Z,2.77
2023-02-18T03:26:23.951Z,2.60
2023-02-18T03:28:57.189Z,2.60
2023-02-18T03:31:31.421Z,3.27
2023-02-18T03:34:05.521Z,3.50
2023-02-18T03:36:37.746Z,2.43
2023-02-18T03:39:13.826Z,2.87
2023-02-18T03:41:44.245Z,3.10
2023-02-18T03:44:15.215Z,3.10
2023-02-18T03:46:47.283Z,3.43
2023-02-18T03:49:18.244Z,3.13
2023-02-18T03:51:48.010Z,2.93
2023-02-18T03:54:20.495Z,3.33
2023-02-18T03:56:50.260Z,3.23
2023-02-18T03:59:20.302Z,4.00
2023-02-18T04:01:50.095Z,3.43
2023-02-18T04:04:19.911Z,3.40
2023-02-18T04:06:49.733Z,3.60
2023-02-18T04:09:22.142Z,3.60
2023-02-18T04:11:51.906Z,3.50
2023-02-18T04:14:21.670Z,3.50
2023-02-18T04:16:51.484Z,3.97
2023-02-18T04:19:21.257Z,3.77
2023-02-18T04:21:51.057Z,4.07
2023-02-18T04:24:23.433Z,3.20
2023-02-18T04:26:53.197Z,3.30
2023-02-18T04:29:22.966Z,3.70
2023-02-18T04:31:52.826Z,3.57
2023-02-18T04:34:22.616Z,3.30
2023-02-18T04:36:52.400Z,3.67
2023-02-18T04:39:24.759Z,3.40
2023-02-18T04:41:54.487Z,3.83
2023-02-18T04:44:24.256Z,3.80
2023-02-18T04:46:54.025Z,3.03
2023-02-18T04:49:23.795Z,3.10
2023-02-18T04:51:53.571Z,3.40
2023-02-18T04:54:25.942Z,3.40
2023-02-18T04:56:55.932Z,3.20
2023-02-18T04:59:25.680Z,3.23
2023-02-18T05:01:55.468Z,2.97
2023-02-18T05:04:25.293Z,2.87
2023-02-18T05:06:55.102Z,2.97
2023-02-18T05:09:27.524Z,2.60
2023-02-18T05:11:57.281Z,4.00
2023-02-18T05:14:27.042Z,3.07
2023-02-18T05:16:56.802Z,2.97
2023-02-18T05:19:26.559Z,3.37
2023-02-18T05:21:56.323Z,2.90
2023-02-18T05:24:28.716Z,3.60
2023-02-18T05:26:58.545Z,3.60
2023-02-18T05:29:28.336Z,4.50
2023-02-18T05:31:58.176Z,4.70
2023-02-18T05:34:28.043Z,4.90
2023-02-18T05:36:57.804Z,6.03
2023-02-18T05:39:30.264Z,6.03
2023-02-18T05:42:00.059Z,8.80
2023-02-18T05:44:35.974Z,7.20
2023-02-18T05:47:11.015Z,8.50
2023-02-18T05:49:42.619Z,10.80
2023-02-18T05:52:13.430Z,11.30
2023-02-18T05:54:46.525Z,11.93
2023-02-18T05:57:16.879Z,13.27
2023-02-18T05:59:46.644Z,13.23
2023-02-18T06:02:16.501Z,14.27
2023-02-18T06:04:46.260Z,14.17
2023-02-18T06:07:16.000Z,13.20
2023-02-18T06:09:48.530Z,13.93
2023-02-18T06:12:18.348Z,14.17
2023-02-18T06:14:48.260Z,14.50
2023-02-18T06:17:18.939Z,14.10
2023-02-18T06:19:49.258Z,12.93
2023-02-18T06:22:19.103Z,13.27
2023-02-18T06:24:51.512Z,12.07
2023-02-18T06:27:21.286Z,12.13
2023-02-18T06:29:51.076Z,11.77
2023-02-18T06:32:21.020Z,11.10
2023-02-18T06:34:50.926Z,11.03
2023-02-18T06:37:20.703Z,12.00
2023-02-18T06:39:53.113Z,11.37
2023-02-18T06:42:22.859Z,10.03
2023-02-18T06:44:52.671Z,10.27
2023-02-18T06:47:22.451Z,11.23
2023-02-18T06:49:52.245Z,12.13
2023-02-18T06:52:22.101Z,11.73
2023-02-18T06:54:54.481Z,12.43
2023-02-18T06:57:24.264Z,13.20
2023-02-18T06:59:54.018Z,12.17
2023-02-18T07:02:23.786Z,14.30
2023-02-18T07:04:53.572Z,15.23
2023-02-18T07:07:23.311Z,14.93
2023-02-18T07:09:55.728Z,14.53
2023-02-18T07:12:25.523Z,14.77
2023-02-18T07:14:55.391Z,14.53
2023-02-18T07:17:25.195Z,14.90
2023-02-18T07:19:55.934Z,14.60
2023-02-18T07:22:25.991Z,13.87
2023-02-18T07:24:58.375Z,13.03
2023-02-18T07:27:28.384Z,12.83
2023-02-18T07:29:58.526Z,13.30
2023-02-18T07:32:28.340Z,13.13
2023-02-18T07:34:58.093Z,12.07
2023-02-18T07:37:27.898Z,11.50
2023-02-18T07:40:00.361Z,11.20
2023-02-18T07:42:30.206Z,10.73
2023-02-18T07:44:59.975Z,10.97
2023-02-18T07:47:29.716Z,10.93
2023-02-18T07:50:05.119Z,10.47
2023-02-18T07:52:35.316Z,9.43
2023-02-18T07:55:08.147Z,8.60
2023-02-18T07:57:57.432Z,8.97
2023-02-18T08:00:27.498Z,8.83
2023-02-18T08:02:57.392Z,8.67
2023-02-18T08:05:27.281Z,8.23
2023-02-18T08:08:00.490Z,8.40
2023-02-18T08:10:32.898Z,8.03
2023-02-18T08:13:02.737Z,8.37
2023-02-18T08:15:32.496Z,7.33
2023-02-18T08:18:02.437Z,7.77
2023-02-18T08:20:32.250Z,8.67
2023-02-18T08:23:02.012Z,7.33
2023-02-18T08:25:34.398Z,7.10
2023-02-18T08:28:04.481Z,6.83
2023-02-18T08:30:34.760Z,5.77
2023-02-18T08:33:04.663Z,6.67
2023-02-18T08:35:34.483Z,5.33
2023-02-18T08:38:04.501Z,5.33
2023-02-18T08:40:46.415Z,5.00
2023-02-18T08:43:17.247Z,5.10
2023-02-18T08:45:47.944Z,4.67
2023-02-18T08:48:20.450Z,4.77
2023-02-18T08:50:50.900Z,4.50
2023-02-18T08:53:21.221Z,4.00
2023-02-18T08:55:53.846Z,4.03
2023-02-18T08:58:23.751Z,3.97
2023-02-18T09:00:53.680Z,3.00
2023-02-18T09:03:23.538Z,3.47
2023-02-18T09:05:53.434Z,2.87
2023-02-18T09:08:23.262Z,3.40
2023-02-18T09:10:59.106Z,3.10
2023-02-18T09:13:29.425Z,2.70
2023-02-18T09:16:01.014Z,3.27
2023-02-18T09:18:30.941Z,2.77
2023-02-18T09:21:01.988Z,3.33
2023-02-18T09:23:34.291Z,2.40
2023-02-18T09:26:07.832Z,3.30
2023-02-18T09:28:38.073Z,2.90
2023-02-18T09:31:09.629Z,3.43
2023-02-18T09:33:40.510Z,3.27
2023-02-18T09:36:11.170Z,2.87
2023-02-18T09:38:41.006Z,2.97
2023-02-18T09:41:20.650Z,2.93
2023-02-18T09:43:53.537Z,2.93
2023-02-18T09:46:26.925Z,3.63
2023-02-18T09:48:57.186Z,3.13
2023-02-18T09:51:26.995Z,2.93
2023-02-18T09:53:56.787Z,3.47
2023-02-18T09:56:32.631Z,2.67
2023-02-18T09:59:06.587Z,2.60
2023-02-18T10:01:39.339Z,2.83
2023-02-18T10:04:18.472Z,3.10
2023-02-18T10:06:50.990Z,3.17
2023-02-18T10:09:24.227Z,2.80
2023-02-18T10:12:00.589Z,2.97
2023-02-18T10:14:31.819Z,3.03
2023-02-18T10:17:02.996Z,3.17
2023-02-18T10:19:37.240Z,2.97
2023-02-18T10:22:09.663Z,3.37
2023-02-18T10:24:43.349Z,3.07
2023-02-18T10:27:23.780Z,3.43
2023-02-18T10:29:54.143Z,2.47
2023-02-18T10:32:26.872Z,3.60
2023-02-18T10:35:03.283Z,3.80
2023-02-18T10:37:49.869Z,3.20
2023-02-18T10:40:24.412Z,3.57
2023-02-18T10:43:09.541Z,3.67
2023-02-18T10:45:47.426Z,4.03
2023-02-18T10:48:36.186Z,3.37
2023-02-18T10:51:15.415Z,3.00
2023-02-18T10:53:48.143Z,3.70
2023-02-18T10:56:38.163Z,3.67
2023-02-18T10:59:23.179Z,3.63
2023-02-18T11:01:58.647Z,3.57
2023-02-18T11:04:31.282Z,3.67
2023-02-18T11:07:07.992Z,3.30
2023-02-18T11:09:46.805Z,3.70
2023-02-18T11:12:20.849Z,4.10
2023-02-18T11:15:09.055Z,4.07
2023-02-18T11:17:40.278Z,3.60
2023-02-18T11:20:26.755Z,3.90
2023-02-18T11:23:01.271Z,4.40
2023-02-18T11:25:35.403Z,3.50
2023-02-18T11:28:08.843Z,4.17
2023-02-18T11:30:43.401Z,3.67
2023-02-18T11:33:21.442Z,3.43
2023-02-18T11:35:53.214Z,3.67
2023-02-18T11:38:28.775Z,3.90
2023-02-18T11:41:00.285Z,3.60
2023-02-18T11:43:33.747Z,3.47
2023-02-18T11:46:18.097Z,3.43
2023-02-18T11:48:48.392Z,4.00
2023-02-18T11:51:20.983Z,4.67
2023-02-18T11:54:00.502Z,3.50
2023-02-18T11:56:33.157Z,3.60
2023-02-18T11:59:04.869Z,3.63
2023-02-18T12:01:49.041Z,3.27
2023-02-18T12:04:21.150Z,3.67
2023-02-18T12:06:58.670Z,3.53
2023-02-18T12:09:34.433Z,4.17
2023-02-18T12:12:09.482Z,4.00
2023-02-18T12:14:39.920Z,3.43
2023-02-18T12:17:36.072Z,4.40
2023-02-18T12:20:50.558Z,3.87
2023-02-18T12:23:28.799Z,4.00
2023-02-18T12:26:08.408Z,3.87
2023-02-18T12:28:55.185Z,4.33
2023-02-18T12:31:44.141Z,3.87
2023-02-18T12:34:32.211Z,4.17
2023-02-18T12:37:14.734Z,4.43
2023-02-18T12:40:02.596Z,4.23
2023-02-18T12:42:47.824Z,4.47
2023-02-18T12:45:42.315Z,3.87
2023-02-18T12:48:27.595Z,4.10
2023-02-18T12:51:21.112Z,3.47
2023-02-18T12:54:09.387Z,4.32
2023-02-18T12:56:59.138Z,3.73
2023-02-18T13:00:01.134Z,3.70
2023-02-18T13:02:49.248Z,4.10
2023-02-18T13:05:29.354Z,3.60
2023-02-18T13:08:14.132Z,4.00
2023-02-18T13:11:06.595Z,3.10
2023-02-18T13:13:40.189Z,3.67
2023-02-18T13:16:14.986Z,3.53
2023-02-18T13:18:50.303Z,3.60
2023-02-18T13:21:20.458Z,3.97
2023-02-18T13:23:56.186Z,3.13
2023-02-18T13:26:28.343Z,3.87
2023-02-18T13:29:13.887Z,3.35
2023-02-18T13:31:53.343Z,3.90
2023-02-18T13:34:31.373Z,4.07
2023-02-18T13:37:13.414Z,4.17
2023-02-18T13:39:52.572Z,3.83
2023-02-18T13:42:43.293Z,3.20
2023-02-18T13:45:29.057Z,3.27
2023-02-18T13:48:00.407Z,3.43
2023-02-18T13:50:35.194Z,2.80
2023-02-18T13:53:33.301Z,3.93
2023-02-18T13:56:13.394Z,3.67
2023-02-18T13:58:46.490Z,3.40
2023-02-18T14:01:42.112Z,3.00
2023-02-18T14:04:39.562Z,3.07
2023-02-18T14:07:47.128Z,3.37
2023-02-18T14:10:38.266Z,3.30
2023-02-18T14:13:40.898Z,3.27
2023-02-18T14:16:12.706Z,3.77
2023-02-18T14:18:58.938Z,3.30
2023-02-18T14:21:43.817Z,3.07
2023-02-18T14:24:15.610Z,2.57
2023-02-18T14:26:50.130Z,3.87
2023-02-18T14:29:33.184Z,3.97
2023-02-18T14:32:06.062Z,3.60
2023-02-18T14:35:11.291Z,4.07
2023-02-18T14:38:07.649Z,3.10
2023-02-18T14:40:52.938Z,4.00
2023-02-18T14:43:48.200Z,3.80
2023-02-18T14:46:35.098Z,3.20
2023-02-18T14:49:20.433Z,3.07
2023-02-18T14:51:52.533Z,3.60
2023-02-18T14:54:26.026Z,3.73
2023-02-18T14:57:00.396Z,4.47
2023-02-18T14:59:34.331Z,4.60
2023-02-18T15:02:06.751Z,4.47
2023-02-18T15:04:36.526Z,3.90
2023-02-18T15:07:08.332Z,5.37
2023-02-18T15:09:38.305Z,4.30
2023-02-18T15:12:10.622Z,3.73
2023-02-18T15:14:43.047Z,4.17
2023-02-18T15:17:21.139Z,4.30
2023-02-18T15:19:54.394Z,4.07
2023-02-18T15:22:25.963Z,4.40
2023-02-18T15:24:57.630Z,3.83
2023-02-18T15:27:30.583Z,3.60
2023-02-18T15:30:02.660Z,3.53
2023-02-18T15:32:35.870Z,3.60
2023-02-18T15:35:17.442Z,3.80
2023-02-18T15:37:48.937Z,4.07
2023-02-18T15:40:19.759Z,3.77
2023-02-18T15:42:53.204Z,3.53
2023-02-18T15:45:25.087Z,3.73
2023-02-18T15:48:00.353Z,4.20
2023-02-18T15:50:33.706Z,3.20
2023-02-18T15:53:09.973Z,4.30
2023-02-18T15:55:44.613Z,3.10
2023-02-18T15:58:20.960Z,3.57
2023-02-18T16:00:53.686Z,4.33
2023-02-18T16:03:28.707Z,4.17
2023-02-18T16:06:13.960Z,4.10
2023-02-18T16:08:43.942Z,5.17
2023-02-18T16:11:16.391Z,4.50
2023-02-18T16:13:53.377Z,4.27
2023-02-18T16:16:33.614Z,4.40
2023-02-18T16:19:07.431Z,3.33
2023-02-18T16:21:42.486Z,3.00
2023-02-18T16:24:28.382Z,3.40
2023-02-18T16:27:01.262Z,2.73
2023-02-18T16:29:43.197Z,4.60
2023-02-18T16:32:13.285Z,3.80
2023-02-18T16:34:48.742Z,3.93
2023-02-18T16:37:42.621Z,4.30
2023-02-18T16:40:28.584Z,5.50
2023-02-18T16:43:00.772Z,4.17
2023-02-18T16:45:37.463Z,4.73
2023-02-18T16:48:08.120Z,4.40
2023-02-18T16:50:41.083Z,4.97
2023-02-18T16:53:10.862Z,4.30
2023-02-18T16:55:40.777Z,4.30
2023-02-18T16:58:10.707Z,3.87
2023-02-18T17:00:41.351Z,3.93
2023-02-18T17:03:12.763Z,3.93
2023-02-18T17:05:45.257Z,3.70
2023-02-18T17:08:23.231Z,3.80
2023-02-18T17:10:54.771Z,3.83
2023-02-18T17:13:29.957Z,3.67
2023-02-18T17:16:01.376Z,4.73
2023-02-18T17:18:31.981Z,3.63
2023-02-18T17:21:04.443Z,4.40
2023-02-18T17:23:36.749Z,4.30
2023-02-18T17:26:12.037Z,3.97
2023-02-18T17:28:41.804Z,4.77
2023-02-18T17:31:17.261Z,3.80
2023-02-18T17:33:47.595Z,3.27
2023-02-18T17:36:20.024Z,3.63
2023-02-18T17:38:49.971Z,3.87
2023-02-18T17:41:20.308Z,4.53
2023-02-18T17:43:50.102Z,4.43
2023-02-18T17:46:21.481Z,4.43
2023-02-18T17:48:51.321Z,4.93
2023-02-18T17:51:27.892Z,5.53
2023-02-18T17:53:58.324Z,4.80
2023-02-18T17:56:28.141Z,4.87
2023-02-18T17:58:58.010Z,4.87
2023-02-18T18:01:27.938Z,3.90
2023-02-18T18:03:57.716Z,4.60
2023-02-18T18:06:30.265Z,4.10
2023-02-18T18:09:00.015Z,3.37
2023-02-18T18:11:29.858Z,5.53
2023-02-18T18:13:59.978Z,4.00
2023-02-18T18:16:29.827Z,4.50
2023-02-18T18:18:59.600Z,4.10
2023-02-18T18:21:36.131Z,4.30
2023-02-18T18:24:06.552Z,4.30
2023-02-18T18:26:36.340Z,4.63
2023-02-18T18:29:06.192Z,5.07
2023-02-18T18:31:37.632Z,4.03
2023-02-18T18:34:07.528Z,4.20
2023-02-18T18:36:39.978Z,4.33
2023-02-18T18:39:09.899Z,4.50
2023-02-18T18:41:39.815Z,4.77
2023-02-18T18:44:09.775Z,4.20
2023-02-18T18:46:42.082Z,5.10
2023-02-18T18:49:11.924Z,4.07
2023-02-18T18:51:44.443Z,4.63
2023-02-18T18:54:15.302Z,4.43
2023-02-18T18:56:50.310Z,4.50
2023-02-18T18:59:20.079Z,4.97
2023-02-18T19:01:49.902Z,5.13
2023-02-18T19:04:20.711Z,5.47
2023-02-18T19:06:53.091Z,6.07
2023-02-18T19:09:22.929Z,5.13
2023-02-18T19:11:52.693Z,5.97
2023-02-18T19:14:23.023Z,7.10
2023-02-18T19:16:52.777Z,6.00
2023-02-18T19:19:24.739Z,7.00
2023-02-18T19:21:57.109Z,6.87
2023-02-18T19:24:26.937Z,5.67
2023-02-18T19:26:56.748Z,5.90
2023-02-18T19:29:26.488Z,5.50
2023-02-18T19:31:56.291Z,5.00
2023-02-18T19:34:26.058Z,4.97
2023-02-18T19:36:58.529Z,4.80
2023-02-18T19:39:28.304Z,4.20
2023-02-18T19:41:58.153Z,4.47
2023-02-18T19:44:27.972Z,3.70
2023-02-18T19:46:59.171Z,3.30
2023-02-18T19:49:29.191Z,3.87
2023-02-18T19:52:04.251Z,3.83
2023-02-18T19:54:34.638Z,3.57
2023-02-18T19:57:05.649Z,3.60
2023-02-18T19:59:36.430Z,3.80
2023-02-18T20:02:07.916Z,3.83
2023-02-18T20:04:37.990Z,3.50
2023-02-18T20:07:10.433Z,3.57
2023-02-18T20:09:40.206Z,3.23
2023-02-18T20:12:11.561Z,3.57
2023-02-18T20:14:43.740Z,3.83
2023-02-18T20:17:14.126Z,4.63
2023-02-18T20:19:43.892Z,3.33
2023-02-18T20:22:16.284Z,3.63
2023-02-18T20:24:46.071Z,3.33
2023-02-18T20:27:15.832Z,3.30
2023-02-18T20:29:45.628Z,3.37
2023-02-18T20:32:17.771Z,3.60
2023-02-18T20:34:48.608Z,3.43
2023-02-18T20:37:20.957Z,2.77
2023-02-18T20:39:50.886Z,3.50
2023-02-18T20:42:20.693Z,4.23
2023-02-18T20:44:51.868Z,4.27
2023-02-18T20:47:22.113Z,4.77
2023-02-18T20:49:51.960Z,4.03
2023-02-18T20:52:24.317Z,4.13
2023-02-18T20:54:54.107Z,4.10
2023-02-18T20:57:23.917Z,3.57
2023-02-18T20:59:53.830Z,4.83
2023-02-18T21:02:23.630Z,4.80
2023-02-18T21:04:53.403Z,4.40
2023-02-18T21:07:25.811Z,4.33
2023-02-18T21:09:55.575Z,4.57
2023-02-18T21:12:25.355Z,4.97
2023-02-18T21:14:55.156Z,4.97
2023-02-18T21:17:24.971Z,3.93
2023-02-18T21:19:57.605Z,4.90
2023-02-18T21:22:30.003Z,3.33
2023-02-18T21:25:00.550Z,3.87
2023-02-18T21:27:30.327Z,4.07
2023-02-18T21:30:01.701Z,3.70
2023-02-18T21:32:31.533Z,4.33
2023-02-18T21:35:02.877Z,3.67
2023-02-18T21:37:36.018Z,4.27
2023-02-18T21:40:05.888Z,3.53
2023-02-18T21:42:35.680Z,3.50
2023-02-18T21:45:05.627Z,4.17
2023-02-18T21:47:35.399Z,3.60
2023-02-18T21:50:05.197Z,3.43
2023-02-18T21:52:37.571Z,3.63
2023-02-18T21:55:08.219Z,3.40
2023-02-18T21:57:38.699Z,3.43
2023-02-18T22:00:19.631Z,3.13
2023-02-18T22:03:10.807Z,4.23
2023-02-18T22:05:43.302Z,3.47
2023-02-18T22:08:15.867Z,3.80
2023-02-18T22:10:45.671Z,3.80
2023-02-18T22:13:15.425Z,3.60
2023-02-18T22:15:45.156Z,3.27
2023-02-18T22:18:14.975Z,3.27
2023-02-18T22:20:44.736Z,3.77
2023-02-18T22:23:18.781Z,4.47
2023-02-18T22:25:49.473Z,4.73
2023-02-18T22:28:19.375Z,3.87
2023-02-18T22:30:49.204Z,3.87
2023-02-18T22:33:18.994Z,4.30
2023-02-18T22:35:48.776Z,3.90
2023-02-18T22:38:21.222Z,5.10
2023-02-18T22:40:52.078Z,4.70
2023-02-18T22:43:21.890Z,4.90
2023-02-18T22:45:51.827Z,5.30
2023-02-18T22:48:21.638Z,5.00
2023-02-18T22:50:56.643Z,6.20
2023-02-18T22:53:31.231Z,5.50
2023-02-18T22:56:03.103Z,5.40
2023-02-18T22:58:33.123Z,5.57
2023-02-18T23:01:03.171Z,5.93
2023-02-18T23:03:33.451Z,5.63
2023-02-18T23:06:05.320Z,5.83
2023-02-18T23:08:38.057Z,5.33
2023-02-18T23:11:10.640Z,5.47
2023-02-18T23:13:40.870Z,6.17
2023-02-18T23:16:14.094Z,6.13
2023-02-18T23:18:45.222Z,6.80
2023-02-18T23:21:23.765Z,6.90
2023-02-18T23:23:58.356Z,6.63
2023-02-18T23:26:28.919Z,6.40
2023-02-18T23:28:58.691Z,6.80
2023-02-18T23:31:30.599Z,7.00
2023-02-18T23:34:04.095Z,7.60
2023-02-18T23:36:35.925Z,8.10
2023-02-18T23:39:11.199Z,8.37
2023-02-18T23:41:41.276Z,8.13
2023-02-18T23:44:14.598Z,7.70
2023-02-18T23:46:45.078Z,8.53
2023-02-18T23:49:20.291Z,7.20
2023-02-18T23:51:50.229Z,7.60
2023-02-18T23:54:23.396Z,8.90
2023-02-18T23:56:53.232Z,8.30
2023-02-18T23:59:23.095Z,8.90
